sensor_id;sensor_type;location;lat;lon;timestamp;P1;durP1;ratioP1;P2;durP2;ratioP2
1010;SDS011;494;48.744;10.106;2023-06-26T00:00:55;20.87;;;12.07;;
1010;SDS011;494;48.744;10.106;2023-06-26T00:03:23;22.17;;;12.40;;
1010;SDS011;494;48.744;10.106;2023-06-26T00:05:52;21.87;;;11.63;;
1010;SDS011;494;48.744;10.106;2023-06-26T00:08:21;21.63;;;12.53;;
1010;SDS011;494;48.744;10.106;2023-06-26T00:10:51;21.37;;;12.30;;
1010;SDS011;494;48.744;10.106;2023-06-26T00:13:20;20.30;;;11.90;;
1010;SDS011;494;48.744;10.106;2023-06-26T00:15:51;21.73;;;12.13;;
1010;SDS011;494;48.744;10.106;2023-06-26T00:18:22;20.97;;;11.80;;
1010;SDS011;494;48.744;10.106;2023-06-26T00:20:50;22.03;;;12.70;;
1010;SDS011;494;48.744;10.106;2023-06-26T00:23:19;22.50;;;12.40;;
1010;SDS011;494;48.744;10.106;2023-06-26T00:25:48;22.17;;;11.90;;
1010;SDS011;494;48.744;10.106;2023-06-26T00:28:16;20.57;;;11.53;;
1010;SDS011;494;48.744;10.106;2023-06-26T00:30:45;22.00;;;12.77;;
1010;SDS011;494;48.744;10.106;2023-06-26T00:33:28;19.30;;;11.47;;
1010;SDS011;494;48.744;10.106;2023-06-26T00:35:56;19.57;;;11.57;;
1010;SDS011;494;48.744;10.106;2023-06-26T00:38:25;25.00;;;12.90;;
1010;SDS011;494;48.744;10.106;2023-06-26T00:40:54;19.40;;;11.73;;
1010;SDS011;494;48.744;10.106;2023-06-26T00:43:22;20.03;;;11.70;;
1010;SDS011;494;48.744;10.106;2023-06-26T00:45:51;23.57;;;12.27;;
1010;SDS011;494;48.744;10.106;2023-06-26T00:48:20;22.53;;;12.80;;
1010;SDS011;494;48.744;10.106;2023-06-26T00:50:50;21.30;;;12.10;;
1010;SDS011;494;48.744;10.106;2023-06-26T00:53:19;21.67;;;11.63;;
1010;SDS011;494;48.744;10.106;2023-06-26T00:55:48;23.07;;;12.30;;
1010;SDS011;494;48.744;10.106;2023-06-26T00:58:17;25.80;;;12.90;;
1010;SDS011;494;48.744;10.106;2023-06-26T01:00:46;19.60;;;11.97;;
1010;SDS011;494;48.744;10.106;2023-06-26T01:03:16;19.90;;;12.20;;
1010;SDS011;494;48.744;10.106;2023-06-26T01:05:45;22.20;;;12.80;;
1010;SDS011;494;48.744;10.106;2023-06-26T01:08:17;21.83;;;12.63;;
1010;SDS011;494;48.744;10.106;2023-06-26T01:10:47;20.00;;;11.90;;
1010;SDS011;494;48.744;10.106;2023-06-26T01:13:16;21.53;;;11.73;;
1010;SDS011;494;48.744;10.106;2023-06-26T01:15:46;21.97;;;12.30;;
1010;SDS011;494;48.744;10.106;2023-06-26T01:18:16;20.93;;;11.97;;
1010;SDS011;494;48.744;10.106;2023-06-26T01:20:45;20.67;;;12.13;;
1010;SDS011;494;48.744;10.106;2023-06-26T01:23:15;20.60;;;11.70;;
1010;SDS011;494;48.744;10.106;2023-06-26T01:25:56;22.27;;;12.30;;
1010;SDS011;494;48.744;10.106;2023-06-26T01:28:41;20.80;;;11.53;;
1010;SDS011;494;48.744;10.106;2023-06-26T01:31:12;20.30;;;12.20;;
1010;SDS011;494;48.744;10.106;2023-06-26T01:33:43;20.97;;;12.27;;
1010;SDS011;494;48.744;10.106;2023-06-26T01:36:13;19.97;;;11.57;;
1010;SDS011;494;48.744;10.106;2023-06-26T01:38:42;20.93;;;12.40;;
1010;SDS011;494;48.744;10.106;2023-06-26T01:41:12;23.80;;;11.87;;
1010;SDS011;494;48.744;10.106;2023-06-26T01:43:43;23.50;;;12.60;;
1010;SDS011;494;48.744;10.106;2023-06-26T01:46:48;22.13;;;12.70;;
1010;SDS011;494;48.744;10.106;2023-06-26T01:49:33;24.00;;;12.17;;
1010;SDS011;494;48.744;10.106;2023-06-26T01:52:16;20.27;;;11.83;;
1010;SDS011;494;48.744;10.106;2023-06-26T01:54:54;23.17;;;13.30;;
1010;SDS011;494;48.744;10.106;2023-06-26T01:57:45;20.37;;;12.30;;
1010;SDS011;494;48.744;10.106;2023-06-26T02:00:15;22.40;;;12.90;;
1010;SDS011;494;48.744;10.106;2023-06-26T02:02:45;20.87;;;12.50;;
1010;SDS011;494;48.744;10.106;2023-06-26T02:05:15;21.80;;;12.80;;
1010;SDS011;494;48.744;10.106;2023-06-26T02:07:43;23.47;;;12.60;;
1010;SDS011;494;48.744;10.106;2023-06-26T02:10:12;21.83;;;12.17;;
1010;SDS011;494;48.744;10.106;2023-06-26T02:12:41;20.00;;;12.23;;
1010;SDS011;494;48.744;10.106;2023-06-26T02:15:11;20.30;;;12.10;;
1010;SDS011;494;48.744;10.106;2023-06-26T02:17:40;23.30;;;11.93;;
1010;SDS011;494;48.744;10.106;2023-06-26T02:20:09;21.77;;;11.53;;
1010;SDS011;494;48.744;10.106;2023-06-26T02:22:38;20.20;;;12.07;;
1010;SDS011;494;48.744;10.106;2023-06-26T02:25:07;23.63;;;12.30;;
1010;SDS011;494;48.744;10.106;2023-06-26T02:27:37;21.33;;;11.83;;
1010;SDS011;494;48.744;10.106;2023-06-26T02:30:06;22.33;;;12.00;;
1010;SDS011;494;48.744;10.106;2023-06-26T02:32:37;24.50;;;12.80;;
1010;SDS011;494;48.744;10.106;2023-06-26T02:35:06;20.10;;;12.10;;
1010;SDS011;494;48.744;10.106;2023-06-26T02:37:36;22.70;;;12.40;;
1010;SDS011;494;48.744;10.106;2023-06-26T02:40:04;22.40;;;12.10;;
1010;SDS011;494;48.744;10.106;2023-06-26T02:42:35;23.57;;;12.60;;
1010;SDS011;494;48.744;10.106;2023-06-26T02:45:05;22.80;;;12.90;;
1010;SDS011;494;48.744;10.106;2023-06-26T02:47:35;23.33;;;12.40;;
1010;SDS011;494;48.744;10.106;2023-06-26T02:50:07;21.27;;;12.60;;
1010;SDS011;494;48.744;10.106;2023-06-26T02:52:37;21.10;;;12.37;;
1010;SDS011;494;48.744;10.106;2023-06-26T02:55:06;20.47;;;11.70;;
1010;SDS011;494;48.744;10.106;2023-06-26T02:57:35;20.20;;;12.10;;
1010;SDS011;494;48.744;10.106;2023-06-26T03:00:04;20.30;;;12.37;;
1010;SDS011;494;48.744;10.106;2023-06-26T03:02:34;20.13;;;12.23;;
1010;SDS011;494;48.744;10.106;2023-06-26T03:05:05;22.80;;;12.47;;
1010;SDS011;494;48.744;10.106;2023-06-26T03:07:35;19.67;;;12.00;;
1010;SDS011;494;48.744;10.106;2023-06-26T03:10:03;22.17;;;11.67;;
1010;SDS011;494;48.744;10.106;2023-06-26T03:12:33;23.33;;;12.63;;
1010;SDS011;494;48.744;10.106;2023-06-26T03:15:02;23.43;;;12.90;;
1010;SDS011;494;48.744;10.106;2023-06-26T03:17:31;23.07;;;12.90;;
1010;SDS011;494;48.744;10.106;2023-06-26T03:20:01;23.87;;;13.17;;
1010;SDS011;494;48.744;10.106;2023-06-26T03:22:35;21.40;;;13.20;;
1010;SDS011;494;48.744;10.106;2023-06-26T03:25:04;23.90;;;13.77;;
1010;SDS011;494;48.744;10.106;2023-06-26T03:27:34;22.83;;;13.30;;
1010;SDS011;494;48.744;10.106;2023-06-26T03:30:03;21.87;;;13.10;;
1010;SDS011;494;48.744;10.106;2023-06-26T03:32:32;23.67;;;14.53;;
1010;SDS011;494;48.744;10.106;2023-06-26T03:35:01;24.20;;;14.07;;
1010;SDS011;494;48.744;10.106;2023-06-26T03:37:32;25.63;;;14.50;;
1010;SDS011;494;48.744;10.106;2023-06-26T03:40:02;24.13;;;13.33;;
1010;SDS011;494;48.744;10.106;2023-06-26T03:42:32;24.47;;;13.47;;
1010;SDS011;494;48.744;10.106;2023-06-26T03:45:01;24.90;;;14.60;;
1010;SDS011;494;48.744;10.106;2023-06-26T03:47:30;24.83;;;13.33;;
1010;SDS011;494;48.744;10.106;2023-06-26T03:49:58;22.37;;;14.10;;
1010;SDS011;494;48.744;10.106;2023-06-26T03:52:27;26.17;;;14.83;;
1010;SDS011;494;48.744;10.106;2023-06-26T03:54:58;25.63;;;13.63;;
1010;SDS011;494;48.744;10.106;2023-06-26T03:57:27;22.13;;;13.90;;
1010;SDS011;494;48.744;10.106;2023-06-26T03:59:56;23.50;;;14.53;;
1010;SDS011;494;48.744;10.106;2023-06-26T04:02:25;25.90;;;14.97;;
1010;SDS011;494;48.744;10.106;2023-06-26T04:04:53;25.30;;;14.33;;
1010;SDS011;494;48.744;10.106;2023-06-26T04:07:22;23.60;;;14.37;;
1010;SDS011;494;48.744;10.106;2023-06-26T04:09:51;22.97;;;14.23;;
1010;SDS011;494;48.744;10.106;2023-06-26T04:12:22;25.17;;;13.40;;
1010;SDS011;494;48.744;10.106;2023-06-26T04:15:00;25.63;;;14.80;;
1010;SDS011;494;48.744;10.106;2023-06-26T04:17:29;22.80;;;13.70;;
1010;SDS011;494;48.744;10.106;2023-06-26T04:19:58;23.77;;;14.97;;
1010;SDS011;494;48.744;10.106;2023-06-26T04:22:27;22.40;;;14.47;;
1010;SDS011;494;48.744;10.106;2023-06-26T04:24:56;25.30;;;14.30;;
1010;SDS011;494;48.744;10.106;2023-06-26T04:27:25;24.50;;;15.20;;
1010;SDS011;494;48.744;10.106;2023-06-26T04:29:54;25.53;;;14.93;;
1010;SDS011;494;48.744;10.106;2023-06-26T04:32:25;27.03;;;14.07;;
1010;SDS011;494;48.744;10.106;2023-06-26T04:34:53;24.90;;;14.10;;
1010;SDS011;494;48.744;10.106;2023-06-26T04:37:22;23.00;;;14.00;;
1010;SDS011;494;48.744;10.106;2023-06-26T04:39:52;23.40;;;14.63;;
1010;SDS011;494;48.744;10.106;2023-06-26T04:42:20;23.70;;;14.93;;
1010;SDS011;494;48.744;10.106;2023-06-26T04:44:49;27.53;;;16.17;;
1010;SDS011;494;48.744;10.106;2023-06-26T04:47:18;27.43;;;15.40;;
1010;SDS011;494;48.744;10.106;2023-06-26T04:49:48;26.40;;;14.23;;
1010;SDS011;494;48.744;10.106;2023-06-26T04:52:18;22.77;;;14.10;;
1010;SDS011;494;48.744;10.106;2023-06-26T04:54:46;28.40;;;15.50;;
1010;SDS011;494;48.744;10.106;2023-06-26T04:57:15;23.07;;;13.60;;
1010;SDS011;494;48.744;10.106;2023-06-26T04:59:44;26.63;;;14.60;;
1010;SDS011;494;48.744;10.106;2023-06-26T05:02:13;22.57;;;14.30;;
1010;SDS011;494;48.744;10.106;2023-06-26T05:04:42;27.10;;;14.30;;
1010;SDS011;494;48.744;10.106;2023-06-26T05:07:12;26.07;;;15.00;;
1010;SDS011;494;48.744;10.106;2023-06-26T05:09:41;23.83;;;14.90;;
1010;SDS011;494;48.744;10.106;2023-06-26T05:12:10;25.33;;;14.77;;
1010;SDS011;494;48.744;10.106;2023-06-26T05:14:39;23.33;;;14.10;;
1010;SDS011;494;48.744;10.106;2023-06-26T05:17:08;26.90;;;14.33;;
1010;SDS011;494;48.744;10.106;2023-06-26T05:19:37;22.50;;;14.00;;
1010;SDS011;494;48.744;10.106;2023-06-26T05:22:05;27.63;;;14.27;;
1010;SDS011;494;48.744;10.106;2023-06-26T05:24:37;27.63;;;14.40;;
1010;SDS011;494;48.744;10.106;2023-06-26T05:27:08;25.00;;;14.57;;
1010;SDS011;494;48.744;10.106;2023-06-26T05:29:46;24.00;;;14.80;;
1010;SDS011;494;48.744;10.106;2023-06-26T05:32:16;28.60;;;15.97;;
1010;SDS011;494;48.744;10.106;2023-06-26T05:34:46;28.10;;;15.90;;
1010;SDS011;494;48.744;10.106;2023-06-26T05:37:18;26.30;;;14.17;;
1010;SDS011;494;48.744;10.106;2023-06-26T05:39:51;26.07;;;14.33;;
1010;SDS011;494;48.744;10.106;2023-06-26T05:42:21;24.63;;;14.00;;
1010;SDS011;494;48.744;10.106;2023-06-26T05:44:50;26.97;;;14.70;;
1010;SDS011;494;48.744;10.106;2023-06-26T05:47:19;22.70;;;14.37;;
1010;SDS011;494;48.744;10.106;2023-06-26T05:49:48;23.77;;;14.80;;
1010;SDS011;494;48.744;10.106;2023-06-26T05:52:17;24.33;;;13.93;;
1010;SDS011;494;48.744;10.106;2023-06-26T05:54:47;25.23;;;14.70;;
1010;SDS011;494;48.744;10.106;2023-06-26T05:57:17;26.80;;;14.20;;
1010;SDS011;494;48.744;10.106;2023-06-26T05:59:48;25.00;;;14.80;;
1010;SDS011;494;48.744;10.106;2023-06-26T06:02:17;25.20;;;14.63;;
1010;SDS011;494;48.744;10.106;2023-06-26T06:04:46;25.40;;;14.67;;
1010;SDS011;494;48.744;10.106;2023-06-26T06:07:14;27.80;;;14.30;;
1010;SDS011;494;48.744;10.106;2023-06-26T06:09:43;23.90;;;15.43;;
1010;SDS011;494;48.744;10.106;2023-06-26T06:12:12;23.30;;;15.33;;
1010;SDS011;494;48.744;10.106;2023-06-26T06:14:42;23.93;;;14.77;;
1010;SDS011;494;48.744;10.106;2023-06-26T06:17:11;24.20;;;14.97;;
1010;SDS011;494;48.744;10.106;2023-06-26T06:19:41;24.50;;;16.53;;
1010;SDS011;494;48.744;10.106;2023-06-26T06:22:10;24.13;;;16.10;;
1010;SDS011;494;48.744;10.106;2023-06-26T06:24:39;25.67;;;16.63;;
1010;SDS011;494;48.744;10.106;2023-06-26T06:27:08;26.60;;;17.60;;
1010;SDS011;494;48.744;10.106;2023-06-26T06:29:37;28.60;;;16.80;;
1010;SDS011;494;48.744;10.106;2023-06-26T06:32:08;25.10;;;17.50;;
1010;SDS011;494;48.744;10.106;2023-06-26T06:34:36;25.97;;;20.50;;
1010;SDS011;494;48.744;10.106;2023-06-26T06:37:05;24.27;;;17.73;;
1010;SDS011;494;48.744;10.106;2023-06-26T06:39:34;25.37;;;15.30;;
1010;SDS011;494;48.744;10.106;2023-06-26T06:42:02;24.17;;;15.93;;
1010;SDS011;494;48.744;10.106;2023-06-26T06:44:32;23.97;;;15.30;;
1010;SDS011;494;48.744;10.106;2023-06-26T06:47:01;22.37;;;14.10;;
1010;SDS011;494;48.744;10.106;2023-06-26T06:49:33;24.20;;;14.70;;
1010;SDS011;494;48.744;10.106;2023-06-26T06:52:02;25.90;;;13.90;;
1010;SDS011;494;48.744;10.106;2023-06-26T06:54:31;27.27;;;14.67;;
1010;SDS011;494;48.744;10.106;2023-06-26T06:57:19;22.70;;;14.13;;
1010;SDS011;494;48.744;10.106;2023-06-26T06:59:48;23.73;;;14.40;;
1010;SDS011;494;48.744;10.106;2023-06-26T07:02:17;25.53;;;14.70;;
1010;SDS011;494;48.744;10.106;2023-06-26T07:04:48;25.70;;;14.77;;
1010;SDS011;494;48.744;10.106;2023-06-26T07:07:18;24.17;;;14.47;;
1010;SDS011;494;48.744;10.106;2023-06-26T07:09:47;28.67;;;17.37;;
1010;SDS011;494;48.744;10.106;2023-06-26T07:12:15;26.17;;;15.13;;
1010;SDS011;494;48.744;10.106;2023-06-26T07:14:44;26.33;;;17.10;;
1010;SDS011;494;48.744;10.106;2023-06-26T07:17:13;26.30;;;15.83;;
1010;SDS011;494;48.744;10.106;2023-06-26T07:19:41;24.93;;;14.67;;
1010;SDS011;494;48.744;10.106;2023-06-26T07:22:11;24.43;;;14.80;;
1010;SDS011;494;48.744;10.106;2023-06-26T07:24:40;24.10;;;14.70;;
1010;SDS011;494;48.744;10.106;2023-06-26T07:27:09;24.70;;;14.80;;
1010;SDS011;494;48.744;10.106;2023-06-26T07:29:38;27.17;;;15.13;;
1010;SDS011;494;48.744;10.106;2023-06-26T07:32:07;24.23;;;15.40;;
1010;SDS011;494;48.744;10.106;2023-06-26T07:34:38;26.33;;;15.17;;
1010;SDS011;494;48.744;10.106;2023-06-26T07:37:07;23.50;;;14.07;;
1010;SDS011;494;48.744;10.106;2023-06-26T07:39:37;28.70;;;18.10;;
1010;SDS011;494;48.744;10.106;2023-06-26T07:42:05;24.27;;;16.97;;
1010;SDS011;494;48.744;10.106;2023-06-26T07:44:34;25.40;;;18.63;;
1010;SDS011;494;48.744;10.106;2023-06-26T07:47:03;23.73;;;15.73;;
1010;SDS011;494;48.744;10.106;2023-06-26T07:49:32;18.70;;;11.93;;
1010;SDS011;494;48.744;10.106;2023-06-26T07:52:05;18.27;;;10.80;;
1010;SDS011;494;48.744;10.106;2023-06-26T07:54:38;18.50;;;10.43;;
1010;SDS011;494;48.744;10.106;2023-06-26T07:57:07;19.00;;;10.93;;
1010;SDS011;494;48.744;10.106;2023-06-26T07:59:37;20.43;;;10.90;;
1010;SDS011;494;48.744;10.106;2023-06-26T08:02:07;18.53;;;11.10;;
1010;SDS011;494;48.744;10.106;2023-06-26T08:04:35;19.20;;;11.10;;
1010;SDS011;494;48.744;10.106;2023-06-26T08:07:04;20.30;;;11.33;;
1010;SDS011;494;48.744;10.106;2023-06-26T08:09:33;18.97;;;10.57;;
1010;SDS011;494;48.744;10.106;2023-06-26T08:12:04;18.27;;;11.13;;
1010;SDS011;494;48.744;10.106;2023-06-26T08:14:37;22.33;;;12.20;;
1010;SDS011;494;48.744;10.106;2023-06-26T08:17:05;18.20;;;10.63;;
1010;SDS011;494;48.744;10.106;2023-06-26T08:19:34;20.40;;;10.87;;
1010;SDS011;494;48.744;10.106;2023-06-26T08:22:03;18.70;;;10.67;;
1010;SDS011;494;48.744;10.106;2023-06-26T08:24:32;19.63;;;9.87;;
1010;SDS011;494;48.744;10.106;2023-06-26T08:27:01;19.23;;;10.87;;
1010;SDS011;494;48.744;10.106;2023-06-26T08:29:33;17.50;;;10.13;;
1010;SDS011;494;48.744;10.106;2023-06-26T08:32:02;19.27;;;10.80;;
1010;SDS011;494;48.744;10.106;2023-06-26T08:34:31;18.60;;;11.10;;
1010;SDS011;494;48.744;10.106;2023-06-26T08:37:00;18.53;;;10.70;;
1010;SDS011;494;48.744;10.106;2023-06-26T08:39:30;18.60;;;10.93;;
1010;SDS011;494;48.744;10.106;2023-06-26T08:41:59;20.30;;;11.40;;
1010;SDS011;494;48.744;10.106;2023-06-26T08:44:29;19.97;;;11.30;;
1010;SDS011;494;48.744;10.106;2023-06-26T08:46:59;18.93;;;10.80;;
1010;SDS011;494;48.744;10.106;2023-06-26T08:49:29;19.20;;;10.90;;
1010;SDS011;494;48.744;10.106;2023-06-26T08:52:08;19.47;;;10.83;;
1010;SDS011;494;48.744;10.106;2023-06-26T08:54:45;22.63;;;12.67;;
1010;SDS011;494;48.744;10.106;2023-06-26T08:57:20;20.03;;;11.00;;
1010;SDS011;494;48.744;10.106;2023-06-26T08:59:54;18.67;;;11.37;;
1010;SDS011;494;48.744;10.106;2023-06-26T09:02:23;18.27;;;11.70;;
1010;SDS011;494;48.744;10.106;2023-06-26T09:04:53;21.83;;;12.50;;
1010;SDS011;494;48.744;10.106;2023-06-26T09:07:22;21.53;;;11.20;;
1010;SDS011;494;48.744;10.106;2023-06-26T09:09:51;19.33;;;11.60;;
1010;SDS011;494;48.744;10.106;2023-06-26T09:12:21;19.30;;;11.50;;
1010;SDS011;494;48.744;10.106;2023-06-26T09:14:51;19.33;;;11.93;;
1010;SDS011;494;48.744;10.106;2023-06-26T09:17:24;19.27;;;11.93;;
1010;SDS011;494;48.744;10.106;2023-06-26T09:19:53;18.63;;;11.23;;
1010;SDS011;494;48.744;10.106;2023-06-26T09:22:22;20.20;;;12.00;;
1010;SDS011;494;48.744;10.106;2023-06-26T09:24:52;19.17;;;11.57;;
1010;SDS011;494;48.744;10.106;2023-06-26T09:27:21;18.63;;;11.60;;
1010;SDS011;494;48.744;10.106;2023-06-26T09:29:50;19.70;;;10.97;;
1010;SDS011;494;48.744;10.106;2023-06-26T09:32:20;19.30;;;11.73;;
1010;SDS011;494;48.744;10.106;2023-06-26T09:34:52;19.77;;;11.80;;
1010;SDS011;494;48.744;10.106;2023-06-26T09:37:22;19.83;;;11.60;;
1010;SDS011;494;48.744;10.106;2023-06-26T09:39:51;20.67;;;14.37;;
1010;SDS011;494;48.744;10.106;2023-06-26T09:42:20;23.10;;;14.17;;
1010;SDS011;494;48.744;10.106;2023-06-26T09:44:49;22.47;;;14.87;;
1010;SDS011;494;48.744;10.106;2023-06-26T09:47:19;21.00;;;12.97;;
1010;SDS011;494;48.744;10.106;2023-06-26T09:49:51;18.87;;;11.73;;
1010;SDS011;494;48.744;10.106;2023-06-26T09:52:21;19.07;;;12.87;;
1010;SDS011;494;48.744;10.106;2023-06-26T09:55:07;20.10;;;12.57;;
1010;SDS011;494;48.744;10.106;2023-06-26T09:57:36;19.53;;;11.87;;
1010;SDS011;494;48.744;10.106;2023-06-26T10:00:06;19.07;;;11.63;;
1010;SDS011;494;48.744;10.106;2023-06-26T10:02:40;20.00;;;12.27;;
1010;SDS011;494;48.744;10.106;2023-06-26T10:05:09;17.80;;;10.73;;
1010;SDS011;494;48.744;10.106;2023-06-26T10:07:37;18.40;;;11.37;;
1010;SDS011;494;48.744;10.106;2023-06-26T10:10:07;18.93;;;11.80;;
1010;SDS011;494;48.744;10.106;2023-06-26T10:12:39;20.67;;;16.77;;
1010;SDS011;494;48.744;10.106;2023-06-26T10:15:07;20.83;;;15.70;;
1010;SDS011;494;48.744;10.106;2023-06-26T10:17:42;18.80;;;12.03;;
1010;SDS011;494;48.744;10.106;2023-06-26T10:20:14;18.03;;;11.03;;
1010;SDS011;494;48.744;10.106;2023-06-26T10:22:45;17.93;;;11.50;;
1010;SDS011;494;48.744;10.106;2023-06-26T10:25:16;18.60;;;12.80;;
1010;SDS011;494;48.744;10.106;2023-06-26T10:27:49;18.07;;;12.03;;
1010;SDS011;494;48.744;10.106;2023-06-26T10:30:22;19.43;;;13.87;;
1010;SDS011;494;48.744;10.106;2023-06-26T10:33:00;19.43;;;12.10;;
1010;SDS011;494;48.744;10.106;2023-06-26T10:35:31;20.10;;;16.03;;
1010;SDS011;494;48.744;10.106;2023-06-26T10:38:02;23.10;;;16.73;;
1010;SDS011;494;48.744;10.106;2023-06-26T10:40:39;19.33;;;14.13;;
1010;SDS011;494;48.744;10.106;2023-06-26T10:43:10;21.90;;;15.37;;
1010;SDS011;494;48.744;10.106;2023-06-26T10:45:44;20.93;;;14.43;;
1010;SDS011;494;48.744;10.106;2023-06-26T10:48:20;19.50;;;13.73;;
1010;SDS011;494;48.744;10.106;2023-06-26T10:50:50;19.03;;;12.33;;
1010;SDS011;494;48.744;10.106;2023-06-26T10:53:24;20.17;;;13.07;;
1010;SDS011;494;48.744;10.106;2023-06-26T10:56:00;19.43;;;12.77;;
1010;SDS011;494;48.744;10.106;2023-06-26T10:58:33;20.20;;;12.83;;
1010;SDS011;494;48.744;10.106;2023-06-26T11:01:22;19.27;;;12.47;;
1010;SDS011;494;48.744;10.106;2023-06-26T11:04:03;20.60;;;12.70;;
1010;SDS011;494;48.744;10.106;2023-06-26T11:06:35;19.07;;;12.00;;
1010;SDS011;494;48.744;10.106;2023-06-26T11:09:07;18.87;;;12.43;;
1010;SDS011;494;48.744;10.106;2023-06-26T11:11:58;40.90;;;13.57;;
1010;SDS011;494;48.744;10.106;2023-06-26T11:14:31;22.50;;;14.60;;
1010;SDS011;494;48.744;10.106;2023-06-26T11:17:04;22.00;;;12.27;;
1010;SDS011;494;48.744;10.106;2023-06-26T11:19:35;23.40;;;15.80;;
1010;SDS011;494;48.744;10.106;2023-06-26T11:22:04;23.80;;;16.47;;
1010;SDS011;494;48.744;10.106;2023-06-26T11:24:33;23.97;;;17.00;;
1010;SDS011;494;48.744;10.106;2023-06-26T11:27:04;25.50;;;16.67;;
1010;SDS011;494;48.744;10.106;2023-06-26T11:29:33;21.10;;;15.90;;
1010;SDS011;494;48.744;10.106;2023-06-26T11:32:02;20.33;;;16.10;;
1010;SDS011;494;48.744;10.106;2023-06-26T11:34:35;22.00;;;16.23;;
1010;SDS011;494;48.744;10.106;2023-06-26T11:37:05;20.60;;;15.40;;
1010;SDS011;494;48.744;10.106;2023-06-26T11:39:34;24.00;;;16.40;;
1010;SDS011;494;48.744;10.106;2023-06-26T11:42:04;23.80;;;16.30;;
1010;SDS011;494;48.744;10.106;2023-06-26T11:44:39;22.33;;;16.23;;
1010;SDS011;494;48.744;10.106;2023-06-26T11:47:14;21.43;;;16.07;;
1010;SDS011;494;48.744;10.106;2023-06-26T11:49:45;20.07;;;15.30;;
1010;SDS011;494;48.744;10.106;2023-06-26T11:52:16;22.47;;;16.20;;
1010;SDS011;494;48.744;10.106;2023-06-26T11:54:44;25.23;;;16.23;;
1010;SDS011;494;48.744;10.106;2023-06-26T11:57:14;20.67;;;15.37;;
1010;SDS011;494;48.744;10.106;2023-06-26T11:59:44;23.23;;;16.63;;
1010;SDS011;494;48.744;10.106;2023-06-26T12:02:13;20.80;;;15.10;;
1010;SDS011;494;48.744;10.106;2023-06-26T12:04:43;22.13;;;15.30;;
1010;SDS011;494;48.744;10.106;2023-06-26T12:07:13;19.60;;;12.90;;
1010;SDS011;494;48.744;10.106;2023-06-26T12:09:45;22.03;;;13.60;;
1010;SDS011;494;48.744;10.106;2023-06-26T12:12:17;21.27;;;13.47;;
1010;SDS011;494;48.744;10.106;2023-06-26T12:14:46;20.47;;;13.00;;
1010;SDS011;494;48.744;10.106;2023-06-26T12:17:15;21.50;;;12.93;;
1010;SDS011;494;48.744;10.106;2023-06-26T12:19:46;22.97;;;14.10;;
1010;SDS011;494;48.744;10.106;2023-06-26T12:22:16;20.03;;;14.20;;
1010;SDS011;494;48.744;10.106;2023-06-26T12:24:46;22.73;;;14.77;;
1010;SDS011;494;48.744;10.106;2023-06-26T12:27:17;20.73;;;13.90;;
1010;SDS011;494;48.744;10.106;2023-06-26T12:29:49;20.87;;;14.67;;
1010;SDS011;494;48.744;10.106;2023-06-26T12:32:21;22.40;;;14.83;;
1010;SDS011;494;48.744;10.106;2023-06-26T12:34:54;21.60;;;14.23;;
1010;SDS011;494;48.744;10.106;2023-06-26T12:37:25;21.87;;;14.70;;
1010;SDS011;494;48.744;10.106;2023-06-26T12:39:55;21.43;;;14.87;;
1010;SDS011;494;48.744;10.106;2023-06-26T12:42:26;21.60;;;14.20;;
1010;SDS011;494;48.744;10.106;2023-06-26T12:44:56;20.90;;;13.87;;
1010;SDS011;494;48.744;10.106;2023-06-26T12:47:26;22.10;;;14.03;;
1010;SDS011;494;48.744;10.106;2023-06-26T12:50:04;24.23;;;15.40;;
1010;SDS011;494;48.744;10.106;2023-06-26T12:52:34;22.63;;;16.00;;
1010;SDS011;494;48.744;10.106;2023-06-26T12:55:03;20.60;;;13.80;;
1010;SDS011;494;48.744;10.106;2023-06-26T12:57:34;22.27;;;14.83;;
1010;SDS011;494;48.744;10.106;2023-06-26T13:00:04;21.03;;;13.90;;
1010;SDS011;494;48.744;10.106;2023-06-26T13:02:36;22.53;;;15.70;;
1010;SDS011;494;48.744;10.106;2023-06-26T13:05:07;20.10;;;14.90;;
1010;SDS011;494;48.744;10.106;2023-06-26T13:07:38;22.20;;;15.30;;
1010;SDS011;494;48.744;10.106;2023-06-26T13:10:08;21.70;;;15.27;;
1010;SDS011;494;48.744;10.106;2023-06-26T13:12:39;22.60;;;16.57;;
1010;SDS011;494;48.744;10.106;2023-06-26T13:15:08;21.40;;;15.63;;
1010;SDS011;494;48.744;10.106;2023-06-26T13:17:38;22.07;;;15.70;;
1010;SDS011;494;48.744;10.106;2023-06-26T13:20:11;23.20;;;16.07;;
1010;SDS011;494;48.744;10.106;2023-06-26T13:22:40;23.23;;;15.73;;
1010;SDS011;494;48.744;10.106;2023-06-26T13:25:09;24.40;;;16.30;;
1010;SDS011;494;48.744;10.106;2023-06-26T13:27:38;23.20;;;15.70;;
1010;SDS011;494;48.744;10.106;2023-06-26T13:30:08;25.70;;;16.13;;
1010;SDS011;494;48.744;10.106;2023-06-26T13:32:37;23.77;;;16.10;;
1010;SDS011;494;48.744;10.106;2023-06-26T13:35:06;23.27;;;15.50;;
1010;SDS011;494;48.744;10.106;2023-06-26T13:37:37;24.27;;;15.53;;
1010;SDS011;494;48.744;10.106;2023-06-26T13:40:06;21.30;;;16.10;;
1010;SDS011;494;48.744;10.106;2023-06-26T13:42:36;24.60;;;15.30;;
1010;SDS011;494;48.744;10.106;2023-06-26T13:45:06;23.63;;;17.10;;
1010;SDS011;494;48.744;10.106;2023-06-26T13:47:56;24.40;;;16.60;;
1010;SDS011;494;48.744;10.106;2023-06-26T13:50:26;23.33;;;15.03;;
1010;SDS011;494;48.744;10.106;2023-06-26T13:53:15;27.37;;;16.20;;
1010;SDS011;494;48.744;10.106;2023-06-26T13:55:44;23.13;;;16.07;;
1010;SDS011;494;48.744;10.106;2023-06-26T13:58:12;22.77;;;15.70;;
1010;SDS011;494;48.744;10.106;2023-06-26T14:00:41;22.90;;;16.57;;
1010;SDS011;494;48.744;10.106;2023-06-26T14:03:15;23.10;;;16.40;;
1010;SDS011;494;48.744;10.106;2023-06-26T14:05:45;24.17;;;16.30;;
1010;SDS011;494;48.744;10.106;2023-06-26T14:08:15;24.43;;;17.43;;
1010;SDS011;494;48.744;10.106;2023-06-26T14:10:45;25.00;;;17.30;;
1010;SDS011;494;48.744;10.106;2023-06-26T14:13:13;24.27;;;16.43;;
1010;SDS011;494;48.744;10.106;2023-06-26T14:15:42;25.40;;;16.77;;
1010;SDS011;494;48.744;10.106;2023-06-26T14:18:11;22.37;;;14.90;;
1010;SDS011;494;48.744;10.106;2023-06-26T14:20:40;27.23;;;16.33;;
1010;SDS011;494;48.744;10.106;2023-06-26T14:23:10;23.03;;;16.77;;
1010;SDS011;494;48.744;10.106;2023-06-26T14:25:38;25.83;;;15.83;;
1010;SDS011;494;48.744;10.106;2023-06-26T14:28:08;23.77;;;16.53;;
1010;SDS011;494;48.744;10.106;2023-06-26T14:30:37;22.57;;;15.80;;
1010;SDS011;494;48.744;10.106;2023-06-26T14:33:06;27.57;;;16.57;;
1010;SDS011;494;48.744;10.106;2023-06-26T14:35:34;24.13;;;16.30;;
1010;SDS011;494;48.744;10.106;2023-06-26T14:38:03;21.63;;;14.73;;
1010;SDS011;494;48.744;10.106;2023-06-26T14:40:33;21.80;;;15.23;;
1010;SDS011;494;48.744;10.106;2023-06-26T14:43:02;25.60;;;15.60;;
1010;SDS011;494;48.744;10.106;2023-06-26T14:45:31;23.10;;;15.73;;
1010;SDS011;494;48.744;10.106;2023-06-26T14:48:00;25.10;;;15.73;;
1010;SDS011;494;48.744;10.106;2023-06-26T14:50:29;23.60;;;15.10;;
1010;SDS011;494;48.744;10.106;2023-06-26T14:52:58;28.10;;;15.90;;
1010;SDS011;494;48.744;10.106;2023-06-26T14:55:27;21.43;;;14.60;;
1010;SDS011;494;48.744;10.106;2023-06-26T14:57:57;22.67;;;15.17;;
1010;SDS011;494;48.744;10.106;2023-06-26T15:00:26;25.23;;;15.60;;
1010;SDS011;494;48.744;10.106;2023-06-26T15:02:54;23.70;;;15.33;;
1010;SDS011;494;48.744;10.106;2023-06-26T15:05:25;24.93;;;15.23;;
1010;SDS011;494;48.744;10.106;2023-06-26T15:07:53;24.30;;;14.13;;